This is the latest recevied weather packets stored in our database for station/object SV9TNF-1. If no packets are shown the sender has not sent any weather packets the latest 10 day(s).
| Time | Temp. | Humidity | Pressure | Rain* | Wind** | Luminosity | Snow |
|---|---|---|---|---|---|---|---|
| 1777887620 | 18.89° C | 46% | 1008.8 hPa | 0 mm | 8.94 m/s, 335° | - | - |
| 1777887321 | 18.89° C | 44% | 1008.8 hPa | 0 mm | 7.15 m/s, 319° | - | - |
| 1777887020 | 18.89° C | 44% | 1008.8 hPa | 0 mm | 8.94 m/s, 127° | - | - |
| 1777886720 | 19.44° C | 43% | 1008.8 hPa | 0 mm | 1.79 m/s, 130° | - | - |
| 1777886420 | 19.44° C | 46% | 1008.8 hPa | 0 mm | 5.81 m/s, 197° | - | - |
| 1777886120 | 18.33° C | 42% | 1008.8 hPa | 0 mm | 4.47 m/s, 147° | - | - |
| 1777885820 | 18.89° C | 44% | 1008.8 hPa | 0 mm | 8.05 m/s, 329° | - | - |
| 1777885519 | 18.33° C | 43% | 1008.8 hPa | 0 mm | 10.73 m/s, 259° | - | - |
| 1777885219 | 18.89° C | 45% | 1008.8 hPa | 0 mm | 5.81 m/s, 226° | - | - |
| 1777884919 | 18.33° C | 43% | 1008.8 hPa | 0 mm | 5.81 m/s, 226° | - | - |
| 1777884619 | 18.33° C | 45% | 1008.8 hPa | 0 mm | 13.41 m/s, 19° | - | - |
| 1777884319 | 18.33° C | 43% | 1008.8 hPa | 0 mm | 8.49 m/s, 302° | - | - |
| 1777884019 | 18.33° C | 43% | 1008.8 hPa | 0 mm | 6.26 m/s, 341° | - | - |
| 1777883719 | 18.33° C | 46% | 1008.8 hPa | 0 mm | 5.81 m/s, 254° | - | - |
| 1777883419 | 17.78° C | 47% | 1008.8 hPa | 0 mm | 5.81 m/s, 340° | - | - |
| 1777883119 | 18.33° C | 46% | 1008.8 hPa | 0 mm | 6.26 m/s, 256° | - | - |
| 1777882819 | 18.33° C | 47% | 1008.8 hPa | 0 mm | 8.05 m/s, 324° | - | - |
| 1777882519 | 17.78° C | 46% | 1008.8 hPa | 0 mm | 5.36 m/s, 157° | - | - |
| 1777882219 | 17.78° C | 46% | 1008.8 hPa | 0 mm | 11.62 m/s, 347° | - | - |
| 1777881918 | 18.33° C | 47% | 1008.8 hPa | 0 mm | 3.58 m/s, 82° | - | - |
| 1777881619 | 17.78° C | 44% | 1008.8 hPa | 0 mm | 3.58 m/s, 152° | - | - |
| 1777881318 | 17.78° C | 47% | 1008.8 hPa | 0 mm | 5.36 m/s, 76° | - | - |
| 1777881018 | 17.78° C | 48% | 1008.8 hPa | 0 mm | 6.26 m/s, 179° | - | - |
| 1777880718 | 17.78° C | 50% | 1008.8 hPa | 0 mm | 11.18 m/s, 302° | - | - |
| 1777880418 | 17.22° C | 48% | 1008.8 hPa | 0 mm | 6.71 m/s, 348° | - | - |
* Rain latest hour (hover to see other rain measurements)
** Current wind speed in m/s (hover to see current wind gust speed)